createdAt,value
2022-08-16T00:00:26.222Z,13.43
2022-08-16T00:02:56.662Z,12.90
2022-08-16T00:05:27.618Z,12.68
2022-08-16T00:08:06.486Z,13.57
2022-08-16T00:10:37.474Z,13.15
2022-08-16T00:13:10.887Z,12.63
2022-08-16T00:15:52.239Z,12.70
2022-08-16T00:18:29.723Z,12.85
2022-08-16T00:21:01.224Z,12.43
2022-08-16T00:23:40.106Z,12.65
2022-08-16T00:26:36.037Z,12.15
2022-08-16T00:29:05.434Z,12.20
2022-08-16T00:31:47.200Z,11.95
2022-08-16T00:34:41.336Z,12.57
2022-08-16T00:37:17.076Z,12.23
2022-08-16T00:39:57.772Z,12.57
2022-08-16T00:42:31.799Z,12.85
2022-08-16T00:45:08.690Z,12.80
2022-08-16T00:47:49.491Z,11.38
2022-08-16T00:50:36.262Z,11.63
2022-08-16T00:53:06.869Z,12.65
2022-08-16T00:55:41.318Z,12.23
2022-08-16T00:58:13.130Z,11.32
2022-08-16T01:00:53.815Z,11.68
2022-08-16T01:03:30.243Z,11.35
2022-08-16T01:06:40.095Z,11.20
2022-08-16T01:08:54.077Z,12.13
2022-08-16T01:11:27.760Z,12.07
2022-08-16T01:14:06.189Z,11.52
2022-08-16T01:16:36.559Z,11.32
2022-08-16T01:19:11.640Z,11.57
2022-08-16T01:21:48.679Z,10.77
2022-08-16T01:24:51.525Z,11.95
2022-08-16T01:27:24.797Z,11.80
2022-08-16T01:30:00.075Z,11.35
2022-08-16T01:32:36.359Z,11.60
2022-08-16T01:35:16.838Z,11.13
2022-08-16T01:37:52.909Z,11.18
2022-08-16T01:40:30.695Z,11.35
2022-08-16T01:43:01.239Z,11.77
2022-08-16T01:45:40.582Z,11.38
2022-08-16T01:48:19.558Z,11.55
2022-08-16T01:51:08.958Z,11.35
2022-08-16T01:53:43.638Z,11.38
2022-08-16T01:56:24.511Z,12.10
2022-08-16T01:58:57.188Z,11.65
2022-08-16T02:01:29.147Z,11.80
2022-08-16T02:04:11.029Z,12.73
2022-08-16T02:06:46.101Z,11.77
2022-08-16T02:09:21.677Z,12.60
2022-08-16T02:11:59.080Z,12.00
2022-08-16T02:14:48.960Z,11.93
2022-08-16T02:17:20.654Z,11.55
2022-08-16T02:19:58.731Z,12.20
2022-08-16T02:22:34.479Z,12.60
2022-08-16T02:25:09.654Z,11.88
2022-08-16T02:27:43.808Z,12.30
2022-08-16T02:30:36.820Z,11.82
2022-08-16T02:33:09.393Z,10.45
2022-08-16T02:35:53.854Z,12.25
2022-08-16T02:38:31.606Z,11.65
2022-08-16T02:41:07.304Z,11.13
2022-08-16T02:43:42.909Z,12.45
2022-08-16T02:46:12.636Z,11.82
2022-08-16T02:48:49.112Z,12.13
2022-08-16T02:51:23.481Z,12.02
2022-08-16T02:53:54.677Z,12.02
2022-08-16T02:56:32.056Z,11.43
2022-08-16T02:59:11.840Z,11.10
2022-08-16T03:01:44.506Z,11.20
2022-08-16T03:04:39.282Z,10.55
2022-08-16T03:07:16.817Z,11.65
2022-08-16T03:10:00.244Z,11.18
2022-08-16T03:12:37.639Z,10.00
2022-08-16T03:15:21.856Z,11.60
2022-08-16T03:17:54.330Z,11.38
2022-08-16T03:20:32.278Z,11.75
2022-08-16T03:23:09.152Z,12.05
2022-08-16T03:25:43.197Z,11.77
2022-08-16T03:28:17.274Z,11.63
2022-08-16T03:30:50.275Z,11.95
2022-08-16T03:33:20.108Z,12.30
2022-08-16T03:35:59.542Z,12.52
2022-08-16T03:38:50.878Z,13.70
2022-08-16T03:41:25.202Z,12.80
2022-08-16T03:44:00.686Z,13.20
2022-08-16T03:46:47.537Z,12.27
2022-08-16T03:49:23.843Z,11.25
2022-08-16T03:52:08.439Z,11.40
2022-08-16T03:54:52.232Z,10.90
2022-08-16T03:57:23.557Z,11.38
2022-08-16T03:59:53.559Z,10.95
2022-08-16T04:02:31.881Z,11.25
2022-08-16T04:05:06.364Z,11.80
2022-08-16T04:07:37.926Z,12.07
2022-08-16T04:10:35.559Z,11.93
2022-08-16T04:13:04.488Z,11.23
2022-08-16T04:15:36.066Z,12.43
2022-08-16T04:18:17.966Z,11.93
2022-08-16T04:20:47.525Z,11.93
2022-08-16T04:23:18.847Z,11.77
2022-08-16T04:25:49.145Z,12.48
2022-08-16T04:28:51.922Z,11.88
2022-08-16T04:31:10.687Z,11.80
2022-08-16T04:33:50.930Z,12.93
2022-08-16T04:36:23.357Z,12.88
2022-08-16T04:38:53.907Z,12.18
2022-08-16T04:41:32.953Z,11.88
2022-08-16T04:44:33.035Z,12.88
2022-08-16T04:47:00.931Z,12.27
2022-08-16T04:49:43.671Z,11.23
2022-08-16T04:52:33.936Z,11.93
2022-08-16T04:55:12.027Z,11.73
2022-08-16T04:57:44.036Z,13.45
2022-08-16T05:00:31.014Z,12.05
2022-08-16T05:03:11.469Z,11.85
2022-08-16T05:05:59.131Z,12.10
2022-08-16T05:08:35.668Z,11.93
2022-08-16T05:11:15.909Z,11.27
2022-08-16T05:13:50.158Z,11.40
2022-08-16T05:16:29.906Z,11.52
2022-08-16T05:19:16.483Z,11.15
2022-08-16T05:22:07.824Z,11.35
2022-08-16T05:24:49.657Z,10.98
2022-08-16T05:27:25.116Z,11.23
2022-08-16T05:30:01.017Z,11.43
2022-08-16T05:32:36.438Z,10.75
2022-08-16T05:35:17.292Z,11.25
2022-08-16T05:38:05.727Z,11.27
2022-08-16T05:40:59.661Z,10.48
2022-08-16T05:43:43.563Z,10.95
2022-08-16T05:46:30.574Z,12.15
2022-08-16T05:49:17.209Z,11.48
2022-08-16T05:51:55.613Z,12.40
2022-08-16T05:54:28.826Z,10.75
2022-08-16T05:57:01.947Z,10.35
2022-08-16T05:59:33.656Z,11.35
2022-08-16T06:02:03.459Z,11.45
2022-08-16T06:04:37.980Z,11.75
2022-08-16T06:07:26.705Z,10.40
2022-08-16T06:10:32.540Z,11.23
2022-08-16T06:13:04.308Z,11.00
2022-08-16T06:15:34.139Z,11.05
2022-08-16T06:18:06.167Z,12.65
2022-08-16T06:20:37.034Z,10.98
2022-08-16T06:23:26.658Z,10.98
2022-08-16T06:26:08.029Z,10.38
2022-08-16T06:28:42.558Z,9.65
2022-08-16T06:31:24.591Z,10.95
2022-08-16T06:33:56.360Z,10.00
2022-08-16T06:36:29.617Z,10.65
2022-08-16T06:39:17.762Z,9.77
2022-08-16T06:42:21.143Z,10.43
2022-08-16T06:45:29.543Z,10.60
2022-08-16T06:48:05.550Z,10.10
2022-08-16T06:50:36.722Z,9.50
2022-08-16T06:53:11.277Z,10.30
2022-08-16T06:55:59.241Z,8.95
2022-08-16T06:58:38.821Z,9.75
2022-08-16T07:01:14.794Z,9.77
2022-08-16T07:03:54.495Z,10.32
2022-08-16T07:06:28.829Z,9.63
2022-08-16T07:09:09.734Z,10.20
2022-08-16T07:11:47.741Z,9.32
2022-08-16T07:14:27.915Z,9.80
2022-08-16T07:17:00.989Z,9.63
2022-08-16T07:20:02.707Z,10.25
2022-08-16T07:22:37.669Z,9.80
2022-08-16T07:25:17.449Z,8.70
2022-08-16T07:27:48.808Z,8.90
2022-08-16T07:30:38.223Z,8.98
2022-08-16T07:33:52.206Z,8.77
2022-08-16T07:36:21.984Z,8.13
2022-08-16T07:38:53.290Z,10.00
2022-08-16T07:41:24.362Z,9.23
2022-08-16T07:44:03.398Z,8.45
2022-08-16T07:46:55.484Z,9.02
2022-08-16T07:49:32.566Z,8.35
2022-08-16T07:52:18.754Z,8.05
2022-08-16T07:54:53.631Z,8.80
2022-08-16T07:57:28.273Z,8.57
2022-08-16T08:00:00.418Z,15.88
2022-08-16T08:02:37.855Z,8.82
2022-08-16T08:05:12.032Z,8.50
2022-08-16T08:07:45.128Z,9.48
2022-08-16T08:10:29.155Z,9.65
2022-08-16T08:13:41.865Z,9.95
2022-08-16T08:16:19.503Z,9.93
2022-08-16T08:18:56.041Z,9.70
2022-08-16T08:22:00.111Z,8.98
2022-08-16T08:24:32.120Z,9.32
2022-08-16T08:27:04.179Z,9.82
2022-08-16T08:29:40.110Z,9.30
2022-08-16T08:32:57.254Z,8.82
2022-08-16T08:35:10.281Z,8.90
2022-08-16T08:37:55.002Z,9.32
2022-08-16T08:40:30.563Z,9.25
2022-08-16T08:43:11.714Z,9.50
2022-08-16T08:45:52.799Z,9.02
2022-08-16T08:48:34.758Z,8.93
2022-08-16T08:51:13.351Z,8.95
2022-08-16T08:53:57.676Z,9.32
2022-08-16T08:56:34.836Z,9.00
2022-08-16T08:59:40.832Z,9.18
2022-08-16T09:02:15.109Z,9.05
2022-08-16T09:04:54.186Z,8.18
2022-08-16T09:07:29.989Z,8.23
2022-08-16T09:10:06.687Z,13.25
2022-08-16T09:12:50.564Z,8.43
2022-08-16T09:15:32.677Z,13.30
2022-08-16T09:18:26.593Z,12.18
2022-08-16T09:20:59.489Z,8.10
2022-08-16T09:23:36.638Z,7.75
2022-08-16T09:26:45.001Z,8.88
2022-08-16T09:29:14.756Z,8.73
2022-08-16T09:31:53.395Z,8.85
2022-08-16T09:34:23.869Z,9.50
2022-08-16T09:37:00.272Z,8.98
2022-08-16T09:39:41.014Z,9.30
2022-08-16T09:42:15.988Z,9.02
2022-08-16T09:45:12.407Z,9.35
2022-08-16T09:47:57.269Z,9.68
2022-08-16T09:50:36.704Z,9.60
2022-08-16T09:53:15.589Z,9.18
2022-08-16T09:55:50.493Z,9.75
2022-08-16T09:58:37.789Z,9.75
2022-08-16T10:01:11.547Z,9.25
2022-08-16T10:04:02.314Z,9.55
2022-08-16T10:06:33.398Z,9.18
2022-08-16T10:09:05.453Z,9.63
2022-08-16T10:11:55.550Z,9.35
2022-08-16T10:14:33.258Z,8.40
2022-08-16T10:17:05.950Z,8.43
2022-08-16T10:19:35.932Z,10.80
2022-08-16T10:22:05.818Z,8.00
2022-08-16T10:24:35.750Z,8.00
2022-08-16T10:27:25.246Z,7.90
2022-08-16T10:30:00.056Z,8.15
2022-08-16T10:32:32.549Z,7.78
2022-08-16T10:35:03.921Z,7.68
2022-08-16T10:37:41.910Z,7.97
2022-08-16T10:40:28.559Z,7.82
2022-08-16T10:43:02.361Z,7.55
2022-08-16T10:45:37.180Z,11.25
2022-08-16T10:48:28.166Z,7.65
2022-08-16T10:50:59.538Z,8.30
2022-08-16T10:53:33.148Z,8.20
2022-08-16T10:56:06.316Z,7.40
2022-08-16T10:59:32.649Z,8.13
2022-08-16T11:07:51.550Z,8.93
2022-08-16T11:16:01.489Z,9.13
2022-08-16T11:18:48.764Z,9.38
2022-08-16T11:21:28.583Z,9.30
2022-08-16T11:23:59.802Z,9.48
2022-08-16T11:26:33.296Z,9.63
2022-08-16T11:29:18.292Z,9.98
2022-08-16T11:31:54.141Z,10.10
2022-08-16T11:34:23.977Z,9.52
2022-08-16T11:37:01.128Z,9.27
2022-08-16T11:39:32.007Z,9.77
2022-08-16T11:42:03.896Z,10.20
2022-08-16T11:44:56.151Z,9.93
2022-08-16T11:47:28.417Z,10.10
2022-08-16T11:49:57.998Z,9.52
2022-08-16T11:52:27.939Z,9.52
2022-08-16T11:55:00.139Z,9.25
2022-08-16T11:57:30.377Z,8.75
2022-08-16T12:00:01.888Z,9.77
2022-08-16T12:02:45.987Z,9.05
2022-08-16T12:05:18.382Z,9.20
2022-08-16T12:07:49.293Z,9.43
2022-08-16T12:10:22.179Z,8.73
2022-08-16T12:12:52.536Z,9.15
2022-08-16T12:15:22.756Z,8.73
2022-08-16T12:17:54.797Z,9.38
2022-08-16T12:20:36.441Z,9.50
2022-08-16T12:23:06.548Z,9.45
2022-08-16T12:25:38.035Z,10.48
2022-08-16T12:28:09.516Z,10.73
2022-08-16T12:30:41.976Z,10.07
2022-08-16T12:33:25.233Z,10.48
2022-08-16T12:35:55.403Z,10.40
2022-08-16T12:38:41.353Z,10.00
2022-08-16T12:41:15.422Z,10.85
2022-08-16T12:43:57.307Z,11.02
2022-08-16T12:46:31.327Z,11.35
2022-08-16T12:49:03.814Z,11.07
2022-08-16T12:51:58.400Z,10.75
2022-08-16T12:54:26.495Z,10.10
2022-08-16T12:56:56.535Z,10.48
2022-08-16T12:59:26.343Z,10.48
2022-08-16T13:02:01.116Z,10.32
2022-08-16T13:04:35.790Z,10.15
2022-08-16T13:07:08.457Z,8.90
2022-08-16T13:09:48.101Z,8.07
2022-08-16T13:12:21.099Z,8.30
2022-08-16T13:14:52.177Z,7.72
2022-08-16T13:17:23.877Z,8.55
2022-08-16T13:20:13.609Z,7.90
2022-08-16T13:22:45.925Z,7.53
2022-08-16T13:25:21.300Z,6.13
2022-08-16T13:28:02.576Z,7.28
2022-08-16T13:30:41.767Z,6.72
2022-08-16T13:33:17.517Z,6.40
2022-08-16T13:35:55.737Z,6.78
2022-08-16T13:38:37.200Z,7.05
2022-08-16T13:41:10.198Z,6.68
2022-08-16T13:43:40.999Z,6.35
2022-08-16T13:46:11.293Z,6.85
2022-08-16T13:48:44.724Z,6.20
2022-08-16T13:51:19.927Z,6.35
2022-08-16T13:53:58.359Z,9.95
2022-08-16T13:56:37.852Z,6.18
2022-08-16T13:59:14.440Z,6.38
2022-08-16T14:01:54.658Z,6.25
2022-08-16T14:04:27.896Z,6.35
2022-08-16T14:07:00.761Z,6.63
2022-08-16T14:09:32.245Z,6.45
2022-08-16T14:12:09.546Z,6.85
2022-08-16T14:14:48.047Z,7.05
2022-08-16T14:17:19.287Z,7.32
2022-08-16T14:19:50.649Z,6.85
2022-08-16T14:22:31.300Z,6.55
2022-08-16T14:25:07.284Z,6.35
2022-08-16T14:27:42.237Z,6.82
2022-08-16T14:30:15.582Z,7.03
2022-08-16T14:32:46.829Z,7.00
2022-08-16T14:35:29.397Z,8.40
2022-08-16T14:38:09.053Z,6.85
2022-08-16T14:40:39.063Z,8.95
2022-08-16T14:43:09.543Z,9.48
2022-08-16T14:45:45.705Z,10.00
2022-08-16T14:48:25.960Z,7.32
2022-08-16T14:50:56.703Z,7.22
2022-08-16T14:53:28.203Z,7.20
2022-08-16T14:55:58.285Z,7.70
2022-08-16T14:58:34.458Z,7.10
2022-08-16T15:01:05.539Z,7.72
2022-08-16T15:03:37.613Z,7.47
2022-08-16T15:06:08.863Z,7.60
2022-08-16T15:08:45.132Z,8.30
2022-08-16T15:11:15.926Z,8.63
2022-08-16T15:13:47.522Z,8.77
2022-08-16T15:16:17.617Z,9.18
2022-08-16T15:18:47.847Z,9.57
2022-08-16T15:21:18.540Z,9.75
2022-08-16T15:23:49.816Z,8.77
2022-08-16T15:26:34.765Z,9.57
2022-08-16T15:29:09.736Z,8.82
2022-08-16T15:31:41.939Z,9.65
2022-08-16T15:34:13.155Z,8.90
2022-08-16T15:36:52.207Z,8.85
2022-08-16T15:39:29.773Z,9.00
2022-08-16T15:42:11.202Z,8.80
2022-08-16T15:44:44.761Z,9.15
2022-08-16T15:47:26.027Z,9.10
2022-08-16T15:49:58.128Z,9.13
2022-08-16T15:52:30.771Z,9.63
2022-08-16T15:55:12.625Z,9.70
2022-08-16T15:57:53.480Z,9.40
2022-08-16T16:00:26.845Z,9.40
2022-08-16T16:03:03.849Z,9.73
2022-08-16T16:05:40.129Z,9.73
2022-08-16T16:08:12.274Z,9.45
2022-08-16T16:10:54.360Z,9.38
2022-08-16T16:13:25.484Z,8.75
2022-08-16T16:15:58.277Z,13.07
2022-08-16T16:18:30.293Z,9.70
2022-08-16T16:21:02.836Z,9.13
2022-08-16T16:23:44.461Z,9.63
2022-08-16T16:26:25.035Z,9.40
2022-08-16T16:29:08.575Z,9.70
2022-08-16T16:31:59.469Z,9.52
2022-08-16T16:34:32.340Z,10.52
2022-08-16T16:37:05.636Z,10.38
2022-08-16T16:39:41.302Z,9.75
2022-08-16T16:42:25.641Z,9.60
2022-08-16T16:45:02.163Z,9.43
2022-08-16T16:47:40.616Z,9.88
2022-08-16T16:50:13.228Z,10.02
2022-08-16T16:52:45.097Z,9.45
2022-08-16T16:55:15.722Z,9.00
2022-08-16T16:58:05.218Z,8.88
2022-08-16T17:00:51.931Z,8.27
2022-08-16T17:03:25.927Z,8.07
2022-08-16T17:06:00.178Z,8.00
2022-08-16T17:08:33.079Z,7.70
2022-08-16T17:11:03.544Z,8.02
2022-08-16T17:13:35.217Z,8.07
2022-08-16T17:16:05.713Z,7.63
2022-08-16T17:19:15.413Z,8.23
2022-08-16T17:21:27.266Z,8.38
2022-08-16T17:24:00.437Z,8.10
2022-08-16T17:26:31.209Z,8.13
2022-08-16T17:29:10.992Z,8.00
2022-08-16T17:31:43.430Z,7.35
2022-08-16T17:34:28.896Z,7.50
2022-08-16T17:37:05.390Z,7.85
2022-08-16T17:39:59.562Z,7.57
2022-08-16T17:42:28.640Z,8.23
2022-08-16T17:44:59.988Z,8.75
2022-08-16T17:47:29.722Z,8.55
2022-08-16T17:49:59.727Z,8.23
2022-08-16T17:52:29.481Z,9.00
2022-08-16T17:54:59.647Z,8.32
2022-08-16T17:57:29.804Z,8.07
2022-08-16T18:00:00.909Z,8.90
2022-08-16T18:02:52.936Z,8.40
2022-08-16T18:05:21.319Z,7.55
2022-08-16T18:07:51.359Z,9.10
2022-08-16T18:10:33.134Z,8.70
2022-08-16T18:13:07.791Z,8.68
2022-08-16T18:15:40.919Z,8.35
2022-08-16T18:18:11.200Z,8.32
2022-08-16T18:20:58.359Z,8.30
2022-08-16T18:23:28.919Z,8.88
2022-08-16T18:26:01.998Z,8.55
2022-08-16T18:28:38.313Z,8.80
2022-08-16T18:31:10.620Z,8.80
2022-08-16T18:33:43.524Z,9.38
2022-08-16T18:36:20.973Z,9.38
2022-08-16T18:38:51.559Z,8.43
2022-08-16T18:41:23.021Z,8.85
2022-08-16T18:44:24.177Z,9.15
2022-08-16T18:46:50.957Z,9.13
2022-08-16T18:49:21.381Z,9.23
2022-08-16T18:51:51.143Z,10.07
2022-08-16T18:54:20.829Z,10.48
2022-08-16T18:56:55.468Z,9.38
2022-08-16T18:59:29.380Z,9.45
2022-08-16T19:02:04.860Z,9.70
2022-08-16T19:04:47.758Z,9.30
2022-08-16T19:07:30.561Z,9.35
2022-08-16T19:10:02.621Z,9.52
2022-08-16T19:12:38.523Z,9.55
2022-08-16T19:15:16.104Z,9.13
2022-08-16T19:17:47.821Z,9.80
2022-08-16T19:20:20.912Z,9.90
2022-08-16T19:23:10.222Z,9.80
2022-08-16T19:25:46.803Z,9.20
2022-08-16T19:28:50.069Z,8.80
2022-08-16T19:31:15.065Z,9.65
2022-08-16T19:33:54.279Z,9.80
2022-08-16T19:36:30.898Z,9.65
2022-08-16T19:39:04.349Z,9.65
2022-08-16T19:41:36.702Z,9.43
2022-08-16T19:44:07.773Z,9.80
2022-08-16T19:46:38.387Z,9.60
2022-08-16T19:49:09.702Z,10.20
2022-08-16T19:51:46.347Z,10.07
2022-08-16T19:54:16.981Z,9.95
2022-08-16T19:56:47.141Z,9.65
2022-08-16T19:59:20.995Z,9.88
2022-08-16T20:01:53.179Z,10.57
2022-08-16T20:04:25.053Z,10.85
2022-08-16T20:06:56.702Z,10.18
2022-08-16T20:09:27.382Z,9.45
2022-08-16T20:11:57.822Z,10.07
2022-08-16T20:14:28.102Z,10.18
2022-08-16T20:16:59.701Z,11.05
2022-08-16T20:19:36.375Z,11.60
2022-08-16T20:22:49.750Z,10.20
2022-08-16T20:25:28.412Z,9.98
2022-08-16T20:28:00.173Z,10.43
2022-08-16T20:30:30.262Z,25.98
2022-08-16T20:33:00.222Z,14.45
2022-08-16T20:35:31.825Z,11.70
2022-08-16T20:38:04.298Z,12.23
2022-08-16T20:40:35.560Z,11.50
2022-08-16T20:43:09.981Z,9.65
2022-08-16T20:45:41.824Z,9.60
2022-08-16T20:48:11.661Z,10.15
2022-08-16T20:50:43.813Z,9.45
2022-08-16T20:53:13.974Z,9.88
2022-08-16T20:55:45.102Z,10.30
2022-08-16T20:58:15.254Z,10.73
2022-08-16T21:00:45.800Z,10.48
2022-08-16T21:03:15.986Z,11.00
2022-08-16T21:05:47.143Z,11.15
2022-08-16T21:08:37.783Z,11.38
2022-08-16T21:11:07.783Z,10.60
2022-08-16T21:13:42.545Z,11.65
2022-08-16T21:16:13.063Z,11.52
2022-08-16T21:18:42.877Z,11.32
2022-08-16T21:21:14.025Z,12.35
2022-08-16T21:23:43.583Z,11.95
2022-08-16T21:26:13.381Z,12.02
2022-08-16T21:28:45.456Z,10.68
2022-08-16T21:31:17.145Z,11.32
2022-08-16T21:33:55.165Z,11.90
2022-08-16T21:36:35.579Z,10.70
2022-08-16T21:39:07.427Z,11.38
2022-08-16T21:41:38.780Z,11.80
2022-08-16T21:44:08.739Z,10.60
2022-08-16T21:46:38.507Z,10.70
2022-08-16T21:49:08.041Z,10.65
2022-08-16T21:51:38.776Z,10.35
2022-08-16T21:54:08.094Z,11.00
2022-08-16T21:56:37.665Z,10.45
2022-08-16T21:59:11.192Z,11.05
2022-08-16T22:01:42.184Z,11.38
2022-08-16T22:04:38.044Z,11.15
2022-08-16T22:07:05.444Z,11.35
2022-08-16T22:09:34.975Z,12.60
2022-08-16T22:12:04.428Z,11.73
2022-08-16T22:14:34.495Z,12.75
2022-08-16T22:17:04.108Z,11.50
2022-08-16T22:19:35.116Z,11.98
2022-08-16T22:22:06.355Z,11.93
2022-08-16T22:24:36.115Z,12.50
2022-08-16T22:27:05.801Z,12.48
2022-08-16T22:29:35.171Z,12.43
2022-08-16T22:32:08.722Z,13.57
2022-08-16T22:34:38.482Z,12.98
2022-08-16T22:37:09.635Z,14.95
2022-08-16T22:39:40.295Z,13.93
2022-08-16T22:42:12.068Z,14.48
2022-08-16T22:44:46.374Z,14.68
2022-08-16T22:47:16.227Z,13.90
2022-08-16T22:49:47.911Z,13.85
2022-08-16T22:52:41.027Z,13.75
2022-08-16T22:55:09.351Z,13.77
2022-08-16T22:57:39.122Z,13.57
2022-08-16T23:00:12.210Z,13.32
2022-08-16T23:02:57.361Z,12.68
2022-08-16T23:05:28.501Z,13.98
2022-08-16T23:07:59.638Z,13.55
2022-08-16T23:10:29.517Z,13.93
2022-08-16T23:13:02.678Z,14.27
2022-08-16T23:15:33.786Z,14.20
2022-08-16T23:18:03.709Z,14.55
2022-08-16T23:20:35.019Z,15.48
2022-08-16T23:23:20.953Z,14.73
2022-08-16T23:25:55.289Z,13.95
2022-08-16T23:28:27.317Z,15.07
2022-08-16T23:30:58.229Z,14.77
2022-08-16T23:33:29.354Z,14.98
2022-08-16T23:36:01.173Z,15.77
2022-08-16T23:38:38.558Z,14.82
2022-08-16T23:41:12.206Z,14.60
2022-08-16T23:43:43.993Z,15.20
2022-08-16T23:46:15.474Z,15.18
2022-08-16T23:49:55.703Z,14.05
2022-08-16T23:51:36.343Z,14.98
2022-08-16T23:54:10.005Z,14.30
2022-08-16T23:56:40.663Z,14.93
2022-08-16T23:59:10.395Z,14.57
